createdAt,value
2019-02-16T00:00:38.648Z,29.40
2019-02-16T00:03:08.459Z,28.15
2019-02-16T00:05:37.776Z,30.08
2019-02-16T00:08:07.130Z,29.52
2019-02-16T00:10:36.721Z,30.40
2019-02-16T00:13:07.124Z,30.40
2019-02-16T00:15:36.822Z,29.72
2019-02-16T00:18:06.279Z,30.72
2019-02-16T00:20:35.668Z,31.55
2019-02-16T00:23:05.317Z,31.17
2019-02-16T00:25:34.674Z,29.70
2019-02-16T00:28:03.980Z,29.25
2019-02-16T00:30:33.729Z,29.32
2019-02-16T00:33:03.550Z,30.35
2019-02-16T00:35:32.940Z,31.68
2019-02-16T00:38:02.349Z,31.20
2019-02-16T00:40:31.924Z,30.65
2019-02-16T00:43:01.332Z,30.27
2019-02-16T00:45:30.663Z,31.68
2019-02-16T00:48:00.087Z,30.50
2019-02-16T00:50:29.418Z,30.37
2019-02-16T00:52:59.825Z,30.70
2019-02-16T00:55:29.418Z,31.10
2019-02-16T00:57:59.115Z,31.35
2019-02-16T01:00:28.821Z,31.45
2019-02-16T01:02:58.647Z,32.00
2019-02-16T01:05:28.436Z,29.90
2019-02-16T01:07:57.777Z,31.95
2019-02-16T01:10:27.169Z,31.30
2019-02-16T01:12:56.961Z,30.92
2019-02-16T01:15:26.682Z,30.10
2019-02-16T01:17:56.038Z,31.37
2019-02-16T01:20:25.371Z,30.20
2019-02-16T01:22:54.687Z,32.17
2019-02-16T01:25:24.496Z,32.30
2019-02-16T01:27:53.881Z,31.75
2019-02-16T01:30:23.585Z,31.70
2019-02-16T01:32:52.961Z,31.30
2019-02-16T01:35:22.377Z,31.73
2019-02-16T01:37:51.701Z,32.05
2019-02-16T01:40:21.434Z,32.17
2019-02-16T01:42:50.756Z,32.73
2019-02-16T01:45:20.430Z,31.93
2019-02-16T01:47:49.778Z,31.17
2019-02-16T01:50:19.172Z,32.40
2019-02-16T01:52:48.576Z,32.53
2019-02-16T01:55:17.917Z,30.17
2019-02-16T01:57:47.305Z,32.35
2019-02-16T02:00:17.749Z,31.25
2019-02-16T02:02:47.159Z,31.87
2019-02-16T02:05:16.875Z,31.77
2019-02-16T02:07:46.301Z,32.17
2019-02-16T02:10:15.728Z,29.82
2019-02-16T02:12:45.057Z,31.65
2019-02-16T02:15:14.788Z,30.48
2019-02-16T02:17:44.150Z,29.95
2019-02-16T02:20:13.539Z,33.02
2019-02-16T02:22:43.313Z,32.42
2019-02-16T02:25:13.115Z,33.13
2019-02-16T02:27:42.823Z,32.78
2019-02-16T02:30:12.314Z,31.68
2019-02-16T02:32:41.706Z,33.05
2019-02-16T02:35:11.121Z,30.62
2019-02-16T02:37:40.522Z,29.27
2019-02-16T02:40:10.266Z,29.35
2019-02-16T02:42:39.602Z,32.70
2019-02-16T02:45:10.485Z,31.55
2019-02-16T02:47:40.212Z,31.97
2019-02-16T02:50:09.587Z,32.95
2019-02-16T02:52:38.912Z,31.37
2019-02-16T02:55:08.422Z,30.57
2019-02-16T02:57:38.120Z,31.42
2019-02-16T03:00:09.651Z,30.52
2019-02-16T03:02:39.373Z,29.95
2019-02-16T03:05:10.529Z,31.70
2019-02-16T03:07:40.235Z,30.68
2019-02-16T03:10:09.686Z,31.00
2019-02-16T03:12:39.018Z,31.75
2019-02-16T03:15:08.410Z,29.77
2019-02-16T03:17:37.832Z,30.62
2019-02-16T03:20:07.660Z,32.88
2019-02-16T03:22:59.683Z,30.43
2019-02-16T03:25:29.445Z,31.27
2019-02-16T03:28:32.509Z,32.03
2019-02-16T03:31:17.220Z,29.95
2019-02-16T03:33:49.873Z,32.53
2019-02-16T03:36:28.437Z,32.55
2019-02-16T03:39:05.239Z,31.37
2019-02-16T03:41:34.949Z,31.85
2019-02-16T03:44:04.694Z,31.65
2019-02-16T03:46:34.050Z,31.07
2019-02-16T03:49:03.356Z,30.08
2019-02-16T03:51:33.274Z,30.15
2019-02-16T03:54:02.819Z,30.90
2019-02-16T03:56:32.589Z,32.50
2019-02-16T03:59:02.306Z,30.17
2019-02-16T04:01:31.663Z,30.92
2019-02-16T04:04:01.058Z,31.07
2019-02-16T04:06:30.504Z,31.50
2019-02-16T04:08:59.944Z,30.00
2019-02-16T04:11:29.262Z,30.23
2019-02-16T04:13:59.020Z,30.95
2019-02-16T04:16:28.591Z,30.30
2019-02-16T04:18:58.339Z,31.52
2019-02-16T04:21:27.724Z,29.65
2019-02-16T04:23:57.285Z,29.23
2019-02-16T04:26:26.616Z,29.35
2019-02-16T04:28:56.164Z,30.92
2019-02-16T04:31:25.972Z,29.75
2019-02-16T04:33:55.485Z,30.88
2019-02-16T04:36:24.955Z,29.12
2019-02-16T04:38:54.692Z,29.07
2019-02-16T04:41:24.500Z,29.45
2019-02-16T04:43:53.905Z,29.23
2019-02-16T04:46:23.408Z,29.37
2019-02-16T04:48:52.725Z,29.15
2019-02-16T04:51:22.134Z,27.95
2019-02-16T04:53:51.821Z,28.40
2019-02-16T04:56:21.146Z,27.37
2019-02-16T04:58:50.463Z,28.60
2019-02-16T05:01:20.145Z,27.77
2019-02-16T05:03:49.469Z,28.17
2019-02-16T05:06:18.864Z,27.60
2019-02-16T05:08:48.322Z,27.90
2019-02-16T05:11:17.730Z,28.87
2019-02-16T05:13:47.416Z,31.40
2019-02-16T05:16:16.756Z,27.98
2019-02-16T05:18:46.093Z,28.32
2019-02-16T05:21:15.764Z,29.00
2019-02-16T05:23:45.439Z,27.85
2019-02-16T05:26:14.901Z,28.85
2019-02-16T05:28:44.574Z,29.32
2019-02-16T05:31:14.026Z,30.12
2019-02-16T05:33:43.727Z,27.20
2019-02-16T05:36:13.126Z,29.42
2019-02-16T05:38:42.579Z,28.92
2019-02-16T05:41:12.185Z,28.85
2019-02-16T05:43:41.535Z,28.70
2019-02-16T05:46:11.324Z,26.70
2019-02-16T05:48:41.040Z,27.50
2019-02-16T05:51:10.566Z,27.60
2019-02-16T05:53:40.350Z,27.48
2019-02-16T05:56:09.681Z,29.80
2019-02-16T05:58:39.011Z,30.12
2019-02-16T06:01:08.428Z,28.23
2019-02-16T06:03:38.081Z,28.55
2019-02-16T06:06:07.782Z,28.25
2019-02-16T06:08:37.203Z,28.07
2019-02-16T06:11:07.514Z,28.98
2019-02-16T06:13:36.913Z,29.10
2019-02-16T06:16:06.281Z,29.65
2019-02-16T06:18:35.906Z,29.48
2019-02-16T06:21:05.357Z,29.65
2019-02-16T06:23:35.140Z,28.35
2019-02-16T06:26:04.453Z,27.87
2019-02-16T06:28:35.547Z,27.65
2019-02-16T06:31:05.489Z,27.75
2019-02-16T06:33:34.832Z,26.62
2019-02-16T06:36:05.819Z,28.17
2019-02-16T06:38:35.218Z,27.60
2019-02-16T06:41:04.827Z,25.77
2019-02-16T06:43:34.253Z,27.20
2019-02-16T06:46:03.764Z,26.50
2019-02-16T06:48:33.550Z,28.55
2019-02-16T06:51:03.274Z,27.25
2019-02-16T06:53:32.641Z,26.77
2019-02-16T06:56:03.604Z,26.48
2019-02-16T06:58:33.022Z,26.17
2019-02-16T07:01:02.450Z,26.40
2019-02-16T07:03:31.767Z,26.75
2019-02-16T07:06:01.531Z,26.65
2019-02-16T07:08:31.206Z,26.10
2019-02-16T07:11:00.578Z,26.48
2019-02-16T07:13:30.366Z,26.20
2019-02-16T07:16:18.924Z,25.75
2019-02-16T07:18:50.270Z,25.30
2019-02-16T07:21:19.980Z,24.75
2019-02-16T07:23:49.408Z,24.45
2019-02-16T07:26:18.744Z,24.65
2019-02-16T07:28:48.073Z,23.00
2019-02-16T07:31:17.439Z,26.50
2019-02-16T07:33:46.837Z,26.10
2019-02-16T07:36:16.193Z,24.55
2019-02-16T07:38:46.098Z,23.75
2019-02-16T07:41:16.576Z,23.87
2019-02-16T07:43:47.562Z,23.40
2019-02-16T07:46:33.912Z,22.82
2019-02-16T07:49:05.306Z,26.82
2019-02-16T07:51:45.742Z,25.72
2019-02-16T07:54:29.086Z,26.85
2019-02-16T07:57:00.443Z,26.95
2019-02-16T07:59:34.663Z,26.17
2019-02-16T08:02:21.965Z,25.17
2019-02-16T08:05:09.310Z,25.35
2019-02-16T08:07:43.426Z,27.40
2019-02-16T08:10:23.686Z,29.52
2019-02-16T08:13:00.612Z,29.10
2019-02-16T08:15:31.639Z,29.12
2019-02-16T08:18:02.990Z,29.02
2019-02-16T08:20:45.967Z,32.58
2019-02-16T08:23:22.964Z,36.07
2019-02-16T08:25:54.406Z,33.10
2019-02-16T08:28:34.555Z,33.83
2019-02-16T08:31:17.498Z,33.28
2019-02-16T08:33:57.236Z,32.07
2019-02-16T08:36:40.173Z,33.65
2019-02-16T08:39:11.186Z,34.48
2019-02-16T08:41:48.152Z,34.10
2019-02-16T08:44:24.986Z,32.38
2019-02-16T08:47:01.724Z,32.98
2019-02-16T08:49:41.825Z,32.75
2019-02-16T08:52:29.709Z,30.90
2019-02-16T08:55:00.784Z,35.00
2019-02-16T08:57:50.028Z,34.30
2019-02-16T09:00:36.414Z,33.23
2019-02-16T09:03:16.773Z,35.60
2019-02-16T09:05:50.484Z,37.15
2019-02-16T09:08:27.177Z,37.88
2019-02-16T09:10:58.173Z,36.30
2019-02-16T09:13:29.240Z,37.05
2019-02-16T09:16:03.402Z,37.30
2019-02-16T09:18:35.556Z,36.75
2019-02-16T09:21:14.638Z,36.50
2019-02-16T09:24:00.071Z,36.88
2019-02-16T09:26:31.145Z,38.38
2019-02-16T09:29:03.184Z,37.85
2019-02-16T09:31:50.751Z,36.68
2019-02-16T09:34:24.502Z,37.35
2019-02-16T09:37:10.501Z,36.95
2019-02-16T09:39:53.678Z,38.23
2019-02-16T09:42:24.714Z,38.45
2019-02-16T09:44:55.838Z,36.38
2019-02-16T09:47:29.791Z,36.48
2019-02-16T09:50:00.831Z,36.28
2019-02-16T09:52:37.959Z,37.80
2019-02-16T09:55:15.132Z,36.00
2019-02-16T09:57:46.414Z,39.58
2019-02-16T10:00:20.113Z,35.98
2019-02-16T10:02:51.350Z,38.45
2019-02-16T10:05:40.753Z,38.60
2019-02-16T10:08:17.632Z,36.55
2019-02-16T10:10:48.668Z,39.03
2019-02-16T10:13:28.933Z,36.60
2019-02-16T10:15:59.895Z,38.40
2019-02-16T10:18:34.116Z,30.10
2019-02-16T10:21:11.081Z,27.95
2019-02-16T10:23:58.611Z,30.23
2019-02-16T10:26:32.338Z,27.85
2019-02-16T10:29:21.726Z,26.57
2019-02-16T10:31:53.033Z,25.10
2019-02-16T10:34:24.112Z,21.77
2019-02-16T10:37:00.813Z,22.73
2019-02-16T10:39:31.863Z,20.10
2019-02-16T10:42:08.846Z,19.25
2019-02-16T10:44:46.018Z,18.77
2019-02-16T10:47:17.381Z,19.65
2019-02-16T10:49:48.824Z,22.48
2019-02-16T10:52:19.870Z,21.68
2019-02-16T10:54:51.075Z,24.67
2019-02-16T10:57:33.885Z,26.87
2019-02-16T11:00:11.833Z,24.60
2019-02-16T11:02:43.858Z,25.70
2019-02-16T11:05:14.875Z,25.08
2019-02-16T11:07:46.001Z,21.85
2019-02-16T11:10:29.828Z,21.70
2019-02-16T11:13:03.524Z,23.45
2019-02-16T11:15:50.905Z,20.50
2019-02-16T11:18:21.958Z,18.82
2019-02-16T11:21:05.004Z,18.23
2019-02-16T11:23:35.961Z,18.92
2019-02-16T11:26:06.933Z,17.45
2019-02-16T11:28:38.009Z,15.48
2019-02-16T11:31:20.775Z,15.55
2019-02-16T11:33:52.098Z,17.75
2019-02-16T11:36:23.056Z,16.25
2019-02-16T11:38:54.123Z,15.53
2019-02-16T11:41:25.086Z,15.18
2019-02-16T11:43:59.437Z,16.73
2019-02-16T11:46:42.600Z,18.05
2019-02-16T11:49:13.593Z,18.20
2019-02-16T11:51:44.953Z,23.52
2019-02-16T11:54:16.037Z,18.42
2019-02-16T11:56:47.339Z,18.62
2019-02-16T11:59:21.323Z,17.45
2019-02-16T12:02:07.649Z,18.02
2019-02-16T12:04:44.485Z,18.23
2019-02-16T12:07:15.510Z,18.27
2019-02-16T12:10:02.718Z,17.60
2019-02-16T12:12:36.469Z,17.30
2019-02-16T12:15:17.701Z,19.40
2019-02-16T12:17:57.485Z,20.45
2019-02-16T12:20:44.029Z,19.27
2019-02-16T12:23:21.010Z,19.27
2019-02-16T12:25:52.011Z,20.25
2019-02-16T12:28:39.179Z,18.35
2019-02-16T12:31:26.792Z,15.68
2019-02-16T12:34:07.285Z,21.07
2019-02-16T12:36:53.481Z,17.02
2019-02-16T12:39:24.911Z,19.95
2019-02-16T12:41:56.259Z,24.60
2019-02-16T12:44:27.272Z,24.40
2019-02-16T12:47:14.498Z,24.80
2019-02-16T12:49:45.604Z,24.60
2019-02-16T12:52:19.823Z,25.85
2019-02-16T12:54:53.993Z,27.82
2019-02-16T12:57:39.925Z,30.23
2019-02-16T13:00:13.070Z,29.02
2019-02-16T13:02:49.889Z,33.13
2019-02-16T13:05:29.931Z,31.27
2019-02-16T13:08:00.964Z,33.35
2019-02-16T13:10:48.500Z,31.57
2019-02-16T13:13:28.623Z,32.45
2019-02-16T13:16:08.780Z,30.43
2019-02-16T13:18:57.588Z,37.83
2019-02-16T13:21:41.016Z,32.90
2019-02-16T13:24:17.793Z,34.80
2019-02-16T13:27:05.488Z,41.73
2019-02-16T13:29:49.924Z,41.63
2019-02-16T13:32:21.389Z,39.05
2019-02-16T13:34:52.708Z,41.42
2019-02-16T13:37:23.766Z,37.70
2019-02-16T13:39:54.885Z,39.00
2019-02-16T13:42:37.686Z,40.40
2019-02-16T13:45:15.932Z,43.38
2019-02-16T13:47:55.901Z,44.00
2019-02-16T13:50:27.346Z,40.43
2019-02-16T13:53:01.083Z,41.15
2019-02-16T13:55:33.723Z,40.85
2019-02-16T13:58:16.638Z,40.78
2019-02-16T14:00:47.701Z,37.55
2019-02-16T14:03:33.879Z,45.65
2019-02-16T14:06:07.404Z,44.35
2019-02-16T14:08:47.729Z,47.30
2019-02-16T14:11:35.427Z,48.42
2019-02-16T14:14:12.304Z,44.50
2019-02-16T14:16:43.359Z,43.35
2019-02-16T14:19:13.856Z,44.38
2019-02-16T14:21:43.252Z,45.05
2019-02-16T14:24:12.615Z,44.90
2019-02-16T14:26:41.989Z,44.98
2019-02-16T14:29:11.389Z,44.13
2019-02-16T14:31:40.789Z,46.05
2019-02-16T14:34:10.252Z,43.70
2019-02-16T14:36:39.603Z,44.40
2019-02-16T14:39:13.941Z,42.88
2019-02-16T14:41:43.529Z,43.90
2019-02-16T14:44:13.254Z,46.13
2019-02-16T14:46:42.691Z,43.05
2019-02-16T14:49:12.377Z,44.48
2019-02-16T14:51:41.973Z,44.67
2019-02-16T14:54:11.343Z,45.45
2019-02-16T14:56:41.879Z,43.68
2019-02-16T14:59:11.222Z,45.92
2019-02-16T15:01:40.744Z,43.75
2019-02-16T15:04:10.219Z,41.83
2019-02-16T15:06:39.607Z,45.63
2019-02-16T15:09:09.159Z,45.73
2019-02-16T15:11:38.553Z,47.62
2019-02-16T15:14:07.874Z,48.78
2019-02-16T15:16:37.326Z,48.87
2019-02-16T15:19:06.657Z,47.60
2019-02-16T15:21:36.242Z,50.55
2019-02-16T15:24:05.964Z,48.08
2019-02-16T15:26:35.287Z,50.35
2019-02-16T15:29:04.693Z,49.40
2019-02-16T15:31:34.387Z,50.23
2019-02-16T15:34:03.777Z,51.55
2019-02-16T15:36:33.478Z,51.85
2019-02-16T15:39:04.639Z,51.77
2019-02-16T15:41:34.033Z,51.35
2019-02-16T15:44:03.438Z,50.10
2019-02-16T15:46:32.897Z,52.17
2019-02-16T15:49:02.262Z,52.25
2019-02-16T15:51:31.663Z,52.53
2019-02-16T15:54:01.024Z,53.98
2019-02-16T15:56:30.366Z,51.70
2019-02-16T15:58:59.847Z,56.83
2019-02-16T16:01:29.345Z,54.98
2019-02-16T16:03:58.709Z,54.48
2019-02-16T16:06:28.027Z,53.28
2019-02-16T16:08:59.455Z,54.18
2019-02-16T16:11:30.482Z,53.85
2019-02-16T16:14:01.554Z,54.05
2019-02-16T16:16:41.652Z,53.73
2019-02-16T16:19:15.849Z,52.45
2019-02-16T16:21:56.032Z,53.55
2019-02-16T16:24:43.304Z,52.62
2019-02-16T16:27:14.278Z,53.98
2019-02-16T16:29:54.739Z,55.48
2019-02-16T16:32:41.094Z,57.03
2019-02-16T16:35:24.308Z,53.30
2019-02-16T16:38:01.459Z,56.77
2019-02-16T16:40:51.136Z,54.00
2019-02-16T16:43:39.953Z,57.08
2019-02-16T16:46:27.418Z,57.05
2019-02-16T16:49:07.370Z,55.43
2019-02-16T16:51:41.407Z,53.70
2019-02-16T16:54:24.823Z,54.13
2019-02-16T16:56:55.885Z,54.83
2019-02-16T16:59:26.918Z,55.20
2019-02-16T17:02:06.675Z,54.13
2019-02-16T17:04:40.599Z,51.77
2019-02-16T17:07:17.693Z,53.65
2019-02-16T17:10:03.953Z,54.40
2019-02-16T17:12:41.086Z,55.20
2019-02-16T17:15:15.230Z,53.95
2019-02-16T17:17:52.823Z,53.58
2019-02-16T17:20:33.183Z,54.15
2019-02-16T17:23:04.223Z,56.58
2019-02-16T17:25:51.968Z,53.50
2019-02-16T17:28:39.383Z,56.05
2019-02-16T17:31:13.162Z,56.05
2019-02-16T17:33:53.118Z,54.40
2019-02-16T17:36:27.096Z,51.83
2019-02-16T17:39:03.781Z,54.35
2019-02-16T17:41:37.845Z,54.30
2019-02-16T17:44:12.353Z,55.10
2019-02-16T17:46:46.479Z,56.70
2019-02-16T17:49:20.675Z,56.83
2019-02-16T17:51:51.724Z,55.95
2019-02-16T17:54:25.655Z,56.58
2019-02-16T17:57:02.374Z,55.88
2019-02-16T17:59:33.388Z,59.25
2019-02-16T18:02:07.457Z,58.83
2019-02-16T18:04:44.742Z,56.02
2019-02-16T18:07:18.903Z,56.08
2019-02-16T18:09:52.760Z,54.93
2019-02-16T18:12:26.767Z,56.20
2019-02-16T18:15:00.375Z,61.30
2019-02-16T18:20:10.735Z,56.55
2019-02-16T18:22:56.831Z,59.55
2019-02-16T18:25:27.832Z,58.58
2019-02-16T18:28:01.554Z,57.55
2019-02-16T18:30:44.816Z,58.50
2019-02-16T18:33:23.098Z,61.73
2019-02-16T18:35:57.394Z,60.90
2019-02-16T18:38:40.373Z,59.33
2019-02-16T18:41:11.477Z,57.78
2019-02-16T18:43:42.461Z,58.60
2019-02-16T18:46:13.840Z,58.60
2019-02-16T18:48:57.022Z,58.95
2019-02-16T18:51:34.017Z,58.10
2019-02-16T18:54:20.371Z,60.90
2019-02-16T18:56:51.779Z,58.63
2019-02-16T18:59:23.225Z,61.65
2019-02-16T19:02:00.312Z,61.23
2019-02-16T19:04:46.162Z,61.08
2019-02-16T19:07:17.170Z,63.92
2019-02-16T19:10:06.264Z,63.40
2019-02-16T19:12:40.278Z,62.88
2019-02-16T19:15:11.412Z,62.73
2019-02-16T19:17:42.530Z,58.60
2019-02-16T19:20:19.582Z,62.70
2019-02-16T19:23:03.906Z,62.27
2019-02-16T19:25:49.809Z,62.90
2019-02-16T19:28:23.486Z,58.55
2019-02-16T19:33:33.641Z,58.05
2019-02-16T19:36:08.025Z,60.23
2019-02-16T19:38:55.691Z,60.73
2019-02-16T19:41:29.704Z,63.23
2019-02-16T19:44:01.102Z,62.58
2019-02-16T19:46:35.124Z,62.95
2019-02-16T19:49:06.587Z,62.73
2019-02-16T19:51:46.873Z,61.00
2019-02-16T19:54:35.933Z,63.45
2019-02-16T19:57:07.008Z,65.32
2019-02-16T19:59:40.447Z,62.00
2019-02-16T20:02:17.773Z,63.90
2019-02-16T20:05:00.646Z,64.80
2019-02-16T20:07:50.112Z,62.13
2019-02-16T20:10:21.465Z,63.13
2019-02-16T20:12:55.356Z,64.15
2019-02-16T20:15:26.388Z,64.00
2019-02-16T20:17:57.503Z,62.85
2019-02-16T20:20:45.093Z,65.05
2019-02-16T20:23:19.171Z,63.87
2019-02-16T20:26:02.259Z,62.75
2019-02-16T20:28:45.266Z,61.50
2019-02-16T20:31:25.388Z,61.03
2019-02-16T20:33:56.463Z,58.63
2019-02-16T20:36:36.668Z,58.63
2019-02-16T20:39:24.431Z,59.15
2019-02-16T20:42:04.730Z,61.70
2019-02-16T20:44:42.179Z,58.33
2019-02-16T20:47:16.122Z,61.53
2019-02-16T20:49:56.272Z,59.80
2019-02-16T20:52:27.586Z,57.75
2019-02-16T20:54:58.843Z,59.73
2019-02-16T20:57:32.576Z,59.73
2019-02-16T21:02:39.871Z,58.38
2019-02-16T21:05:13.752Z,60.23
2019-02-16T21:07:47.491Z,60.63
2019-02-16T21:10:18.558Z,57.98
2019-02-16T21:12:49.514Z,55.30
2019-02-16T21:15:23.404Z,59.80
2019-02-16T21:17:54.379Z,58.28
2019-02-16T21:20:41.832Z,59.10
2019-02-16T21:23:31.091Z,58.17
2019-02-16T21:26:14.412Z,61.33
2019-02-16T21:28:57.602Z,61.20
2019-02-16T21:31:40.863Z,61.00
2019-02-16T21:34:17.942Z,65.50
2019-02-16T21:36:58.055Z,64.03
2019-02-16T21:39:31.960Z,66.02
2019-02-16T21:42:12.569Z,64.42
2019-02-16T21:44:49.229Z,63.63
2019-02-16T21:47:29.505Z,63.75
2019-02-16T21:50:00.544Z,67.85
2019-02-16T21:52:49.113Z,65.57
2019-02-16T21:55:32.551Z,60.60
2019-02-16T21:58:12.893Z,59.10
2019-02-16T22:00:53.133Z,68.25
2019-02-16T22:03:40.389Z,66.70
2019-02-16T22:06:11.350Z,63.30
2019-02-16T22:08:42.755Z,65.78
2019-02-16T22:11:13.798Z,64.77
2019-02-16T22:13:43.165Z,65.85
2019-02-16T22:16:12.865Z,63.60
2019-02-16T22:18:42.471Z,62.58
2019-02-16T22:21:13.017Z,60.23
2019-02-16T22:23:42.655Z,60.28
2019-02-16T22:26:12.004Z,59.38
2019-02-16T22:28:41.865Z,57.58
2019-02-16T22:31:11.581Z,60.17
2019-02-16T22:33:40.990Z,57.80
2019-02-16T22:36:10.370Z,58.42
2019-02-16T22:38:40.063Z,62.15
2019-02-16T22:41:09.378Z,61.25
2019-02-16T22:43:39.101Z,65.72
2019-02-16T22:46:08.811Z,65.03
2019-02-16T22:48:38.136Z,67.03
2019-02-16T22:51:07.791Z,66.05
2019-02-16T22:53:37.178Z,64.55
2019-02-16T22:56:06.493Z,63.00
2019-02-16T22:58:36.295Z,63.68
2019-02-16T23:01:06.047Z,60.90
2019-02-16T23:03:36.172Z,52.80
2019-02-16T23:06:05.553Z,54.88
2019-02-16T23:08:35.170Z,51.85
2019-02-16T23:11:04.573Z,55.45
2019-02-16T23:13:34.108Z,54.45
2019-02-16T23:16:03.446Z,50.85
2019-02-16T23:18:32.769Z,47.78
2019-02-16T23:21:02.486Z,44.95
2019-02-16T23:23:31.901Z,43.70
2019-02-16T23:26:01.696Z,39.55
2019-02-16T23:28:38.612Z,41.95
2019-02-16T23:31:03.117Z,40.50
2019-02-16T23:33:33.647Z,39.80
2019-02-16T23:36:03.433Z,40.65
2019-02-16T23:38:33.129Z,40.85
2019-02-16T23:41:02.602Z,43.17
2019-02-16T23:43:32.276Z,45.92
2019-02-16T23:46:01.666Z,48.30
2019-02-16T23:48:31.151Z,47.98
2019-02-16T23:51:00.869Z,49.35
2019-02-16T23:53:30.174Z,49.77
2019-02-16T23:55:59.882Z,49.08
2019-02-16T23:58:29.350Z,49.23
